Mount Ida, Arkansas
Current Conditions -  °F | °C
As of 7:35 AM on Saturday 20 Dec 2014 (Local Time) from KMWT Reporting Station
Haze Haze  
Wind Chill: 41°   Ceiling: 1800
Heat Index: 41°   Visibility: 6mi
Dew Point: 39°   Wind: 0mph
Humidity: 93%   Direction: NA
Pressure: 30.22"   Gusts: NA
Location:  34.56°N, 93.63°W
Report Text: KMWT 201335Z AUTO 00000KT 6SM BR SCT008 OVC018 05/04 A3022 RMK AO2 T00500039
Loading
Personal Weather Stations






























Interactive Weather Map New forecast layout! Learn more

10-Day Weather Forecast

Advertisements
Track Severe Weather on mobile